createdAt,value
2023-04-26T00:00:21.574Z,11.15
2023-04-26T00:03:12.775Z,11.15
2023-04-26T00:05:42.953Z,11.14
2023-04-26T00:08:15.029Z,11.12
2023-04-26T00:10:45.653Z,11.13
2023-04-26T00:13:13.816Z,11.12
2023-04-26T00:15:43.202Z,11.11
2023-04-26T00:18:13.106Z,11.09
2023-04-26T00:20:41.549Z,11.07
2023-04-26T00:23:21.816Z,11.05
2023-04-26T00:25:50.479Z,11.03
2023-04-26T00:28:18.735Z,11.01
2023-04-26T00:30:48.561Z,11.00
2023-04-26T00:33:16.829Z,10.97
2023-04-26T00:35:45.210Z,10.97
2023-04-26T00:38:14.118Z,10.97
2023-04-26T00:40:46.879Z,10.97
2023-04-26T00:43:15.661Z,10.99
2023-04-26T00:45:46.115Z,11.01
2023-04-26T00:48:16.026Z,11.03
2023-04-26T00:50:49.369Z,11.07
2023-04-26T00:53:26.560Z,11.09
2023-04-26T00:56:00.675Z,11.11
2023-04-26T00:58:30.260Z,11.13
2023-04-26T01:01:04.957Z,11.17
2023-04-26T01:03:34.874Z,11.20
2023-04-26T01:06:05.278Z,11.24
2023-04-26T01:08:36.426Z,11.26
2023-04-26T01:11:12.220Z,11.29
2023-04-26T01:13:49.012Z,11.31
2023-04-26T01:16:21.280Z,11.32
2023-04-26T01:18:54.473Z,11.33
2023-04-26T01:21:28.099Z,11.35
2023-04-26T01:23:56.831Z,11.37
2023-04-26T01:26:27.007Z,11.37
2023-04-26T01:29:00.183Z,11.36
2023-04-26T01:31:28.597Z,11.36
2023-04-26T01:34:01.732Z,11.37
2023-04-26T01:36:31.241Z,11.37
2023-04-26T01:39:00.761Z,11.36
2023-04-26T01:41:29.113Z,11.35
2023-04-26T01:44:05.157Z,11.34
2023-04-26T01:46:35.285Z,11.35
2023-04-26T01:49:03.700Z,11.35
2023-04-26T01:51:33.906Z,11.32
2023-04-26T01:54:06.065Z,11.29
2023-04-26T01:56:35.292Z,11.25
2023-04-26T01:59:04.770Z,11.21
2023-04-26T02:01:33.047Z,11.17
2023-04-26T02:04:10.880Z,11.14
2023-04-26T02:06:42.317Z,11.11
2023-04-26T02:09:12.361Z,11.06
2023-04-26T02:11:41.604Z,11.02
2023-04-26T02:14:10.600Z,10.98
2023-04-26T02:16:40.235Z,10.94
2023-04-26T02:19:12.265Z,10.90
2023-04-26T02:21:58.539Z,10.87
2023-04-26T02:24:31.867Z,10.83
2023-04-26T02:27:05.813Z,10.80
2023-04-26T02:29:44.416Z,10.76
2023-04-26T02:32:28.870Z,10.72
2023-04-26T02:35:00.326Z,10.69
2023-04-26T02:37:29.715Z,10.66
2023-04-26T02:39:58.911Z,10.62
2023-04-26T02:42:27.551Z,10.60
2023-04-26T02:44:57.745Z,10.57
2023-04-26T02:47:29.324Z,10.53
2023-04-26T02:50:00.187Z,10.50
2023-04-26T02:52:30.262Z,10.46
2023-04-26T02:55:01.950Z,10.44
2023-04-26T02:57:34.218Z,10.41
2023-04-26T03:00:05.036Z,10.38
2023-04-26T03:02:34.465Z,10.36
2023-04-26T03:05:05.681Z,10.34
2023-04-26T03:07:40.516Z,10.32
2023-04-26T03:10:17.138Z,10.30
2023-04-26T03:12:45.325Z,10.28
2023-04-26T03:15:13.526Z,10.26
2023-04-26T03:17:48.696Z,10.25
2023-04-26T03:20:21.101Z,10.24
2023-04-26T03:22:52.729Z,10.24
2023-04-26T03:25:23.529Z,10.24
2023-04-26T03:27:57.450Z,10.23
2023-04-26T03:30:29.026Z,10.22
2023-04-26T03:32:57.438Z,10.21
2023-04-26T03:35:25.451Z,10.21
2023-04-26T03:37:55.400Z,10.22
2023-04-26T03:40:26.795Z,10.22
2023-04-26T03:42:55.697Z,10.23
2023-04-26T03:45:26.327Z,10.25
2023-04-26T03:47:56.303Z,10.28
2023-04-26T03:50:25.322Z,10.31
2023-04-26T03:52:54.627Z,10.33
2023-04-26T03:55:23.774Z,10.36
2023-04-26T03:57:53.451Z,10.39
2023-04-26T04:00:29.293Z,10.43
2023-04-26T04:02:57.755Z,10.46
2023-04-26T04:05:39.530Z,10.49
2023-04-26T04:08:11.085Z,10.54
2023-04-26T04:10:42.218Z,10.60
2023-04-26T04:13:13.453Z,10.66
2023-04-26T04:15:43.302Z,10.74
2023-04-26T04:18:15.162Z,10.81
2023-04-26T04:20:44.391Z,10.89
2023-04-26T04:23:12.651Z,10.96
2023-04-26T04:25:41.798Z,11.05
2023-04-26T04:28:24.276Z,11.13
2023-04-26T04:30:57.109Z,11.16
2023-04-26T04:33:33.884Z,11.21
2023-04-26T04:36:07.384Z,11.26
2023-04-26T04:38:40.204Z,11.29
2023-04-26T04:41:16.605Z,11.34
2023-04-26T04:43:52.241Z,11.39
2023-04-26T04:47:19.523Z,11.45
2023-04-26T04:50:14.565Z,11.49
2023-04-26T04:53:00.389Z,11.54
2023-04-26T04:55:40.464Z,11.57
2023-04-26T04:58:21.955Z,11.61
2023-04-26T05:01:49.415Z,11.63
2023-04-26T05:04:21.412Z,11.71
2023-04-26T05:06:51.076Z,11.76
2023-04-26T05:09:29.132Z,11.78
2023-04-26T05:11:59.626Z,11.82
2023-04-26T05:14:30.433Z,11.90
2023-04-26T05:16:59.662Z,11.99
2023-04-26T05:19:36.673Z,12.05
2023-04-26T05:22:07.414Z,12.12
2023-04-26T05:24:38.468Z,12.18
2023-04-26T05:27:10.099Z,12.24
2023-04-26T05:30:03.687Z,12.28
2023-04-26T05:32:52.681Z,12.32
2023-04-26T05:36:31.439Z,12.44
2023-04-26T05:39:00.639Z,12.49
2023-04-26T05:41:29.706Z,12.51
2023-04-26T05:44:08.408Z,12.53
2023-04-26T05:46:39.993Z,12.55
2023-04-26T05:49:12.363Z,12.61
2023-04-26T05:51:54.055Z,12.67
2023-04-26T05:54:26.353Z,12.74
2023-04-26T05:56:57.207Z,12.74
2023-04-26T05:59:36.742Z,12.85
2023-04-26T06:02:09.603Z,12.88
2023-04-26T06:04:39.743Z,12.94
2023-04-26T06:07:12.196Z,13.08
2023-04-26T06:09:41.081Z,13.23
2023-04-26T06:12:12.024Z,13.42
2023-04-26T06:14:42.380Z,13.65
2023-04-26T06:17:15.433Z,13.86
2023-04-26T06:19:44.014Z,14.03
2023-04-26T06:22:12.195Z,14.20
2023-04-26T06:24:42.849Z,14.43
2023-04-26T06:27:11.042Z,14.68
2023-04-26T06:29:43.410Z,14.90
2023-04-26T06:32:15.455Z,14.94
2023-04-26T06:34:45.463Z,14.83
2023-04-26T06:37:13.756Z,14.83
2023-04-26T06:39:43.684Z,15.06
2023-04-26T06:42:22.836Z,15.24
2023-04-26T06:45:11.417Z,15.28
2023-04-26T06:47:40.096Z,15.30
2023-04-26T06:50:10.505Z,15.34
2023-04-26T06:52:42.534Z,15.50
2023-04-26T06:55:16.862Z,15.55
2023-04-26T06:57:50.677Z,15.70
2023-04-26T07:00:19.645Z,15.88
2023-04-26T07:02:48.931Z,16.04
2023-04-26T07:05:17.846Z,16.07
2023-04-26T07:07:46.789Z,16.00
2023-04-26T07:10:15.522Z,15.68
2023-04-26T07:12:50.509Z,15.76
2023-04-26T07:15:19.434Z,15.90
2023-04-26T07:17:47.618Z,16.05
2023-04-26T07:20:20.531Z,16.32
2023-04-26T07:22:50.483Z,16.44
2023-04-26T07:25:18.893Z,16.22
2023-04-26T07:27:53.395Z,16.45
2023-04-26T07:30:37.553Z,16.56
2023-04-26T07:33:05.733Z,16.65
2023-04-26T07:35:35.154Z,16.85
2023-04-26T07:38:04.252Z,16.99
2023-04-26T07:40:32.854Z,17.06
2023-04-26T07:43:03.790Z,17.20
2023-04-26T07:45:34.090Z,17.38
2023-04-26T07:48:02.477Z,17.54
2023-04-26T07:50:31.439Z,17.62
2023-04-26T07:53:02.214Z,17.79
2023-04-26T07:55:30.610Z,17.91
2023-04-26T07:57:58.809Z,18.04
2023-04-26T08:00:27.352Z,18.20
2023-04-26T08:03:20.607Z,18.43
2023-04-26T08:05:54.667Z,18.49
2023-04-26T08:08:28.357Z,18.68
2023-04-26T08:10:57.750Z,18.89
2023-04-26T08:13:29.802Z,18.69
2023-04-26T08:16:20.320Z,18.65
2023-04-26T08:18:52.759Z,18.68
2023-04-26T08:21:49.984Z,18.64
2023-04-26T08:24:28.876Z,18.08
2023-04-26T08:26:59.871Z,17.89
2023-04-26T08:29:29.478Z,18.02
2023-04-26T08:31:58.543Z,18.17
2023-04-26T08:34:28.968Z,18.35
2023-04-26T08:36:57.006Z,18.67
2023-04-26T08:39:25.299Z,18.93
2023-04-26T08:42:04.132Z,19.20
2023-04-26T08:44:36.871Z,19.49
2023-04-26T08:47:39.441Z,19.69
2023-04-26T08:50:12.032Z,19.81
2023-04-26T08:52:42.448Z,19.73
2023-04-26T08:55:12.819Z,19.68
2023-04-26T08:58:12.209Z,19.62
2023-04-26T09:00:46.255Z,19.35
2023-04-26T09:03:15.450Z,19.20
2023-04-26T09:05:49.483Z,19.13
2023-04-26T09:08:18.929Z,19.30
2023-04-26T09:10:50.137Z,19.27
2023-04-26T09:13:19.272Z,19.27
2023-04-26T09:15:49.441Z,19.26
2023-04-26T09:18:19.969Z,19.51
2023-04-26T09:21:09.192Z,19.66
2023-04-26T09:24:01.609Z,19.68
2023-04-26T09:26:30.603Z,19.55
2023-04-26T09:29:20.560Z,19.40
2023-04-26T09:31:50.978Z,19.67
2023-04-26T09:34:19.728Z,19.67
2023-04-26T09:36:55.038Z,20.20
2023-04-26T09:39:41.429Z,20.62
2023-04-26T09:42:19.929Z,20.96
2023-04-26T09:44:53.431Z,21.35
2023-04-26T09:47:27.201Z,21.42
2023-04-26T09:49:55.743Z,21.09
2023-04-26T09:52:28.291Z,21.12
2023-04-26T09:54:56.870Z,21.19
2023-04-26T09:57:24.995Z,21.17
2023-04-26T09:59:55.950Z,21.00
2023-04-26T10:02:27.955Z,20.95
2023-04-26T10:04:59.243Z,21.18
2023-04-26T10:07:30.059Z,21.35
2023-04-26T10:09:58.463Z,21.07
2023-04-26T10:12:27.624Z,20.99
2023-04-26T10:14:57.234Z,21.09
2023-04-26T10:17:25.451Z,20.78
2023-04-26T10:20:00.549Z,20.73
2023-04-26T10:22:36.626Z,20.80
2023-04-26T10:25:09.006Z,21.03
2023-04-26T10:27:49.632Z,21.42
2023-04-26T10:30:22.626Z,21.65
2023-04-26T10:32:56.947Z,21.91
2023-04-26T10:35:32.248Z,22.11
2023-04-26T10:38:00.264Z,22.35
2023-04-26T10:40:33.235Z,22.08
2023-04-26T10:43:10.930Z,21.80
2023-04-26T10:45:41.357Z,21.62
2023-04-26T10:48:22.156Z,21.96
2023-04-26T10:51:04.955Z,22.43
2023-04-26T10:53:45.800Z,22.35
2023-04-26T10:56:23.255Z,22.35
2023-04-26T10:59:43.501Z,22.64
2023-04-26T11:03:02.948Z,22.31
2023-04-26T11:05:57.074Z,22.40
2023-04-26T11:08:31.705Z,22.53
2023-04-26T11:11:02.869Z,22.92
2023-04-26T11:13:36.007Z,22.74
2023-04-26T11:16:17.258Z,22.50
2023-04-26T11:18:48.890Z,22.26
2023-04-26T11:21:19.094Z,21.94
2023-04-26T11:23:57.749Z,22.26
2023-04-26T11:26:36.544Z,22.77
2023-04-26T11:29:17.842Z,23.28
2023-04-26T11:31:59.759Z,23.52
2023-04-26T11:34:39.174Z,23.47
2023-04-26T11:37:08.918Z,23.30
2023-04-26T11:39:37.319Z,23.66
2023-04-26T11:42:12.779Z,23.97
2023-04-26T11:44:41.422Z,23.95
2023-04-26T11:47:10.139Z,23.35
2023-04-26T11:49:41.422Z,23.50
2023-04-26T11:52:10.230Z,23.86
2023-04-26T11:54:38.333Z,23.85
2023-04-26T11:57:19.240Z,23.51
2023-04-26T11:59:48.285Z,23.64
2023-04-26T12:02:16.561Z,24.03
2023-04-26T12:04:47.034Z,24.26
2023-04-26T12:07:21.018Z,24.39
2023-04-26T12:09:49.377Z,24.68
2023-04-26T12:12:17.692Z,24.89
2023-04-26T12:14:47.299Z,25.16
2023-04-26T12:17:15.572Z,25.30
2023-04-26T12:19:50.121Z,24.63
2023-04-26T12:22:23.903Z,24.20
2023-04-26T12:25:05.995Z,23.88
2023-04-26T12:27:35.754Z,24.17
2023-04-26T12:30:04.970Z,24.40
2023-04-26T12:32:33.411Z,24.59
2023-04-26T12:35:01.990Z,24.69
2023-04-26T12:37:36.594Z,24.72
2023-04-26T12:40:13.444Z,24.67
2023-04-26T12:42:41.854Z,24.55
2023-04-26T12:45:12.623Z,24.62
2023-04-26T12:47:41.525Z,24.83
2023-04-26T12:50:12.259Z,24.88
2023-04-26T12:52:41.706Z,25.00
2023-04-26T12:55:15.710Z,24.79
2023-04-26T12:57:45.492Z,24.65
2023-04-26T13:00:22.748Z,24.65
2023-04-26T13:02:51.479Z,24.03
2023-04-26T13:05:22.349Z,23.47
2023-04-26T13:07:51.550Z,23.37
2023-04-26T13:10:19.749Z,23.18
2023-04-26T13:12:48.145Z,23.19
2023-04-26T13:15:17.732Z,23.19
2023-04-26T13:17:46.653Z,23.08
2023-04-26T13:20:14.899Z,22.96
2023-04-26T13:22:43.231Z,22.90
2023-04-26T13:25:12.718Z,22.96
2023-04-26T13:27:41.060Z,23.14
2023-04-26T13:30:11.205Z,23.32
2023-04-26T13:32:40.088Z,23.41
2023-04-26T13:35:08.588Z,23.84
2023-04-26T13:37:36.801Z,24.44
2023-04-26T13:40:06.132Z,24.69
2023-04-26T13:42:50.814Z,24.59
2023-04-26T13:45:19.848Z,24.29
2023-04-26T13:47:51.625Z,24.03
2023-04-26T13:50:19.914Z,23.73
2023-04-26T13:52:50.503Z,23.54
2023-04-26T13:55:18.590Z,23.43
2023-04-26T13:57:46.995Z,23.35
2023-04-26T14:00:16.044Z,23.63
2023-04-26T14:02:44.315Z,24.32
2023-04-26T14:05:12.819Z,24.99
2023-04-26T14:07:41.449Z,25.59
2023-04-26T14:10:10.095Z,25.71
2023-04-26T14:12:38.608Z,25.63
2023-04-26T14:15:18.083Z,25.83
2023-04-26T14:17:47.177Z,26.13
2023-04-26T14:20:18.284Z,26.42
2023-04-26T14:22:49.830Z,26.44
2023-04-26T14:25:21.134Z,26.59
2023-04-26T14:27:49.250Z,26.37
2023-04-26T14:30:18.515Z,26.32
2023-04-26T14:32:48.532Z,26.63
2023-04-26T14:35:18.498Z,26.94
2023-04-26T14:37:47.231Z,27.08
2023-04-26T14:40:21.220Z,27.01
2023-04-26T14:42:58.032Z,26.86
2023-04-26T14:45:37.015Z,26.73
2023-04-26T14:48:13.055Z,26.89
2023-04-26T14:50:41.311Z,27.03
2023-04-26T14:53:10.725Z,27.23
2023-04-26T14:55:42.296Z,27.35
2023-04-26T14:58:12.198Z,27.21
2023-04-26T15:00:40.329Z,27.05
2023-04-26T15:03:20.381Z,26.93
2023-04-26T15:05:55.042Z,26.52
2023-04-26T15:08:23.435Z,25.58
2023-04-26T15:10:52.959Z,24.84
2023-04-26T15:13:22.256Z,23.88
2023-04-26T15:15:52.076Z,23.05
2023-04-26T15:18:25.720Z,22.15
2023-04-26T15:21:06.457Z,21.18
2023-04-26T15:23:36.074Z,20.61
2023-04-26T15:26:05.777Z,20.18
2023-04-26T15:28:35.179Z,19.76
2023-04-26T15:31:08.682Z,19.53
2023-04-26T15:34:00.929Z,19.35
2023-04-26T15:36:32.521Z,19.22
2023-04-26T15:39:01.049Z,19.05
2023-04-26T15:41:32.452Z,18.75
2023-04-26T15:44:01.541Z,18.58
2023-04-26T15:46:29.778Z,18.24
2023-04-26T15:48:57.987Z,18.01
2023-04-26T15:51:27.469Z,17.84
2023-04-26T15:53:59.608Z,17.68
2023-04-26T15:56:29.063Z,17.51
2023-04-26T15:58:58.317Z,17.38
2023-04-26T16:01:29.042Z,17.30
2023-04-26T16:03:58.090Z,17.14
2023-04-26T16:06:28.175Z,16.96
2023-04-26T16:08:56.563Z,16.78
2023-04-26T16:11:26.292Z,16.60
2023-04-26T16:13:56.528Z,16.33
2023-04-26T16:16:26.332Z,16.23
2023-04-26T16:18:54.796Z,16.04
2023-04-26T16:21:23.203Z,15.90
2023-04-26T16:23:52.931Z,15.76
2023-04-26T16:26:21.914Z,15.74
2023-04-26T16:28:51.507Z,15.70
2023-04-26T16:31:21.522Z,15.63
2023-04-26T16:33:51.528Z,15.58
2023-04-26T16:36:19.540Z,15.44
2023-04-26T16:38:47.813Z,15.34
2023-04-26T16:41:17.272Z,15.32
2023-04-26T16:43:46.143Z,15.24
2023-04-26T16:46:15.818Z,15.17
2023-04-26T16:48:44.366Z,15.06
2023-04-26T16:51:13.385Z,14.96
2023-04-26T16:53:43.164Z,14.90
2023-04-26T16:56:13.060Z,14.82
2023-04-26T16:58:41.574Z,14.73
2023-04-26T17:01:11.811Z,14.68
2023-04-26T17:03:40.953Z,14.63
2023-04-26T17:06:10.737Z,14.55
2023-04-26T17:08:39.057Z,14.51
2023-04-26T17:11:07.973Z,14.45
2023-04-26T17:13:36.735Z,14.40
2023-04-26T17:16:08.330Z,14.34
2023-04-26T17:18:38.542Z,14.25
2023-04-26T17:21:07.162Z,14.16
2023-04-26T17:23:38.044Z,14.07
2023-04-26T17:26:06.125Z,14.00
2023-04-26T17:28:34.365Z,13.96
2023-04-26T17:31:03.540Z,13.90
2023-04-26T17:33:42.003Z,13.86
2023-04-26T17:36:10.749Z,13.84
2023-04-26T17:38:40.004Z,13.81
2023-04-26T17:41:08.039Z,13.77
2023-04-26T17:43:36.194Z,13.77
2023-04-26T17:46:04.652Z,13.77
2023-04-26T17:48:33.026Z,13.75
2023-04-26T17:51:02.601Z,13.74
2023-04-26T17:53:31.450Z,13.75
2023-04-26T17:56:01.203Z,13.77
2023-04-26T17:58:29.549Z,13.76
2023-04-26T18:00:57.491Z,13.73
2023-04-26T18:03:30.241Z,13.70
2023-04-26T18:06:03.000Z,13.65
2023-04-26T18:08:31.273Z,13.63
2023-04-26T18:11:00.312Z,13.61
2023-04-26T18:13:28.457Z,13.56
2023-04-26T18:15:56.971Z,13.52
2023-04-26T18:18:28.209Z,13.47
2023-04-26T18:20:56.437Z,13.43
2023-04-26T18:23:24.504Z,13.41
2023-04-26T18:25:53.080Z,13.38
2023-04-26T18:28:21.579Z,13.35
2023-04-26T18:31:00.442Z,13.32
2023-04-26T18:33:28.909Z,13.30
2023-04-26T18:35:56.947Z,13.30
2023-04-26T18:38:31.466Z,13.30
2023-04-26T18:41:00.331Z,13.30
2023-04-26T18:43:32.224Z,13.31
2023-04-26T18:46:01.756Z,13.31
2023-04-26T18:48:30.779Z,13.31
2023-04-26T18:51:00.636Z,13.30
2023-04-26T18:53:28.656Z,13.30
2023-04-26T18:55:59.606Z,13.29
2023-04-26T18:58:28.592Z,13.24
2023-04-26T19:00:57.193Z,13.20
2023-04-26T19:03:29.826Z,13.18
2023-04-26T19:05:58.872Z,13.15
2023-04-26T19:08:27.749Z,13.10
2023-04-26T19:10:56.105Z,13.07
2023-04-26T19:13:26.453Z,13.02
2023-04-26T19:15:54.761Z,12.99
2023-04-26T19:18:22.995Z,12.97
2023-04-26T19:20:52.128Z,12.96
2023-04-26T19:23:21.367Z,12.90
2023-04-26T19:25:51.540Z,12.87
2023-04-26T19:28:19.817Z,12.82
2023-04-26T19:30:47.837Z,12.80
2023-04-26T19:33:16.373Z,12.75
2023-04-26T19:35:44.414Z,12.72
2023-04-26T19:38:12.379Z,12.69
2023-04-26T19:40:46.324Z,12.67
2023-04-26T19:43:31.307Z,12.61
2023-04-26T19:45:59.432Z,12.60
2023-04-26T19:48:29.838Z,12.58
2023-04-26T19:50:58.070Z,12.56
2023-04-26T19:53:27.101Z,12.54
2023-04-26T19:55:56.387Z,12.53
2023-04-26T19:58:25.396Z,12.51
2023-04-26T20:00:55.683Z,12.48
2023-04-26T20:03:27.113Z,12.47
2023-04-26T20:05:56.314Z,12.46
2023-04-26T20:08:24.787Z,12.43
2023-04-26T20:10:52.764Z,12.38
2023-04-26T20:13:21.903Z,12.34
2023-04-26T20:15:51.154Z,12.35
2023-04-26T20:18:19.422Z,12.33
2023-04-26T20:20:48.240Z,12.30
2023-04-26T20:23:16.341Z,12.29
2023-04-26T20:25:44.390Z,12.28
2023-04-26T20:28:12.525Z,12.26
2023-04-26T20:30:42.048Z,12.21
2023-04-26T20:33:10.148Z,12.16
2023-04-26T20:35:40.786Z,12.10
2023-04-26T20:38:12.257Z,12.04
2023-04-26T20:40:40.378Z,12.02
2023-04-26T20:43:08.855Z,11.99
2023-04-26T20:45:37.183Z,11.97
2023-04-26T20:48:06.194Z,11.94
2023-04-26T20:50:36.496Z,11.90
2023-04-26T20:53:05.109Z,11.88
2023-04-26T20:55:33.350Z,11.88
2023-04-26T20:58:02.999Z,11.86
2023-04-26T21:00:31.349Z,11.81
2023-04-26T21:02:59.433Z,11.75
2023-04-26T21:05:28.083Z,11.74
2023-04-26T21:07:56.274Z,11.71
2023-04-26T21:10:24.402Z,11.69
2023-04-26T21:12:52.425Z,11.67
2023-04-26T21:15:21.328Z,11.65
2023-04-26T21:17:49.699Z,11.63
2023-04-26T21:20:17.731Z,11.61
2023-04-26T21:22:46.024Z,11.57
2023-04-26T21:25:16.678Z,11.53
2023-04-26T21:27:48.493Z,11.47
2023-04-26T21:30:17.726Z,11.36
2023-04-26T21:32:47.113Z,11.28
2023-04-26T21:35:16.985Z,11.24
2023-04-26T21:37:47.453Z,11.16
2023-04-26T21:40:16.887Z,11.06
2023-04-26T21:42:57.726Z,11.00
2023-04-26T21:45:33.602Z,10.96
2023-04-26T21:48:01.826Z,10.94
2023-04-26T21:50:30.179Z,10.88
2023-04-26T21:52:58.479Z,10.85
2023-04-26T21:55:26.952Z,10.82
2023-04-26T21:57:59.961Z,10.78
2023-04-26T22:00:28.373Z,10.73
2023-04-26T22:02:57.185Z,10.70
2023-04-26T22:05:26.588Z,10.70
2023-04-26T22:07:54.702Z,10.67
2023-04-26T22:10:23.079Z,10.65
2023-04-26T22:12:51.139Z,10.62
2023-04-26T22:15:20.076Z,10.60
2023-04-26T22:17:48.469Z,10.58
2023-04-26T22:20:16.804Z,10.55
2023-04-26T22:22:45.319Z,10.51
2023-04-26T22:25:14.506Z,10.45
2023-04-26T22:27:42.769Z,10.44
2023-04-26T22:30:22.908Z,10.41
2023-04-26T22:32:57.837Z,10.38
2023-04-26T22:35:27.519Z,10.36
2023-04-26T22:37:55.812Z,10.32
2023-04-26T22:40:23.950Z,10.31
2023-04-26T22:42:53.659Z,10.32
2023-04-26T22:45:22.448Z,10.32
2023-04-26T22:47:51.493Z,10.32
2023-04-26T22:50:20.407Z,10.30
2023-04-26T22:52:49.149Z,10.26
2023-04-26T22:55:17.590Z,10.21
2023-04-26T22:57:47.714Z,10.16
2023-04-26T23:00:17.260Z,10.07
2023-04-26T23:02:45.522Z,10.01
2023-04-26T23:05:13.733Z,9.96
2023-04-26T23:07:42.230Z,9.91
2023-04-26T23:10:10.799Z,9.85
2023-04-26T23:12:40.146Z,9.83
2023-04-26T23:15:09.393Z,9.80
2023-04-26T23:17:41.186Z,9.75
2023-04-26T23:20:12.466Z,9.71
2023-04-26T23:22:42.415Z,9.69
2023-04-26T23:25:10.714Z,9.65
2023-04-26T23:27:39.397Z,9.61
2023-04-26T23:30:08.536Z,9.57
2023-04-26T23:32:37.477Z,9.60
2023-04-26T23:35:07.138Z,9.58
2023-04-26T23:37:35.225Z,9.57
2023-04-26T23:40:05.949Z,9.56
2023-04-26T23:42:33.969Z,9.57
2023-04-26T23:45:03.918Z,9.57
2023-04-26T23:47:32.201Z,9.54
2023-04-26T23:50:00.386Z,9.53
2023-04-26T23:52:28.758Z,9.55
2023-04-26T23:54:57.340Z,9.55
2023-04-26T23:57:25.477Z,9.54
2023-04-26T23:59:53.410Z,9.53
